createdAt,value
2022-09-17T00:00:31.765Z,16.05
2022-09-17T00:01:35.022Z,16.05
2022-09-17T00:02:38.273Z,16.06
2022-09-17T00:03:41.426Z,16.04
2022-09-17T00:04:44.535Z,16.02
2022-09-17T00:05:47.424Z,16.13
2022-09-17T00:06:50.476Z,16.11
2022-09-17T00:07:53.913Z,16.09
2022-09-17T00:08:57.023Z,16.05
2022-09-17T00:10:00.046Z,16.07
2022-09-17T00:11:16.108Z,16.05
2022-09-17T00:12:19.011Z,16.07
2022-09-17T00:13:22.312Z,15.99
2022-09-17T00:14:25.309Z,16.16
2022-09-17T00:15:28.425Z,15.97
2022-09-17T00:16:39.974Z,15.93
2022-09-17T00:17:43.754Z,15.94
2022-09-17T00:18:46.967Z,15.92
2022-09-17T00:19:50.005Z,15.91
2022-09-17T00:20:53.133Z,15.90
2022-09-17T00:21:56.140Z,15.85
2022-09-17T00:22:59.092Z,15.88
2022-09-17T00:24:05.645Z,15.91
2022-09-17T00:25:09.008Z,15.95
2022-09-17T00:26:12.343Z,15.80
2022-09-17T00:27:15.237Z,15.75
2022-09-17T00:28:18.474Z,15.69
2022-09-17T00:29:21.482Z,15.62
2022-09-17T00:30:24.351Z,15.63
2022-09-17T00:31:29.646Z,15.65
2022-09-17T00:32:32.607Z,15.60
2022-09-17T00:33:36.515Z,15.58
2022-09-17T00:34:39.503Z,15.58
2022-09-17T00:35:43.300Z,15.64
2022-09-17T00:36:46.261Z,15.63
2022-09-17T00:37:49.172Z,15.64
2022-09-17T00:38:54.175Z,15.61
2022-09-17T00:39:57.022Z,15.61
2022-09-17T00:41:01.190Z,15.60
2022-09-17T00:42:10.610Z,15.63
2022-09-17T00:43:13.499Z,15.66
2022-09-17T00:44:49.770Z,15.60
2022-09-17T00:45:54.025Z,15.59
2022-09-17T00:46:58.177Z,15.55
2022-09-17T00:48:05.554Z,15.56
2022-09-17T00:49:27.009Z,15.48
2022-09-17T00:50:39.616Z,15.45
2022-09-17T00:52:09.540Z,15.42
2022-09-17T00:53:17.405Z,15.42
2022-09-17T00:54:20.737Z,15.45
2022-09-17T00:55:33.415Z,15.42
2022-09-17T00:56:40.500Z,15.41
2022-09-17T00:57:45.955Z,15.42
2022-09-17T00:58:51.938Z,15.44
2022-09-17T00:59:55.561Z,15.37
2022-09-17T01:00:58.598Z,15.35
2022-09-17T01:02:02.108Z,15.26
2022-09-17T01:03:05.466Z,15.26
2022-09-17T01:04:18.599Z,15.25
2022-09-17T01:05:42.824Z,15.27
2022-09-17T01:07:04.086Z,15.23
2022-09-17T01:08:56.844Z,15.24
2022-09-17T01:10:44.169Z,15.26
2022-09-17T01:11:57.165Z,15.32
2022-09-17T01:13:30.253Z,15.33
2022-09-17T01:15:08.774Z,15.33
2022-09-17T01:16:38.818Z,15.29
2022-09-17T01:18:21.847Z,15.23
2022-09-17T01:20:04.669Z,15.32
2022-09-17T01:21:44.851Z,15.27
2022-09-17T01:23:21.952Z,15.27
2022-09-17T01:24:52.965Z,15.27
2022-09-17T01:26:08.092Z,15.25
2022-09-17T01:28:08.873Z,15.25
2022-09-17T01:29:17.678Z,15.25
2022-09-17T01:31:10.171Z,15.22
2022-09-17T01:32:28.560Z,15.22
2022-09-17T01:33:50.942Z,15.22
2022-09-17T01:35:06.148Z,15.18
2022-09-17T01:36:20.376Z,15.22
2022-09-17T01:37:58.008Z,15.18
2022-09-17T01:39:29.629Z,15.20
2022-09-17T01:41:08.767Z,15.24
2022-09-17T01:42:38.856Z,15.23
2022-09-17T01:44:11.050Z,15.24
2022-09-17T01:45:30.816Z,15.23
2022-09-17T01:46:46.163Z,15.23
2022-09-17T01:48:18.218Z,15.22
2022-09-17T01:49:25.519Z,15.22
2022-09-17T01:50:40.905Z,15.23
2022-09-17T01:51:50.801Z,15.22
2022-09-17T01:52:56.877Z,15.13
2022-09-17T01:54:13.156Z,15.14
2022-09-17T01:55:18.569Z,15.17
2022-09-17T01:56:28.025Z,15.18
2022-09-17T01:57:47.779Z,15.17
2022-09-17T01:59:13.631Z,15.17
2022-09-17T02:00:17.823Z,15.13
2022-09-17T02:01:25.011Z,15.10
2022-09-17T02:02:46.622Z,15.06
2022-09-17T02:04:04.353Z,15.04
2022-09-17T02:05:20.174Z,15.02
2022-09-17T02:06:31.042Z,15.24
2022-09-17T02:08:03.961Z,15.16
2022-09-17T02:09:22.591Z,15.18
2022-09-17T02:10:34.671Z,15.08
2022-09-17T02:11:42.080Z,15.01
2022-09-17T02:12:53.186Z,15.06
2022-09-17T02:14:19.085Z,15.04
2022-09-17T02:15:28.193Z,15.05
2022-09-17T02:16:39.476Z,15.03
2022-09-17T02:18:07.328Z,15.03
2022-09-17T02:19:45.835Z,15.00
2022-09-17T02:21:07.102Z,15.11
2022-09-17T02:22:28.132Z,15.05
2022-09-17T02:23:37.833Z,15.06
2022-09-17T02:24:51.344Z,15.09
2022-09-17T02:26:04.747Z,15.09
2022-09-17T02:27:32.760Z,15.06
2022-09-17T02:28:50.078Z,15.07
2022-09-17T02:29:52.890Z,15.02
2022-09-17T02:30:56.498Z,15.01
2022-09-17T02:32:00.172Z,15.00
2022-09-17T02:33:08.727Z,14.96
2022-09-17T02:34:11.904Z,14.94
2022-09-17T02:35:15.548Z,14.96
2022-09-17T02:36:19.482Z,14.93
2022-09-17T02:37:22.525Z,14.93
2022-09-17T02:38:27.114Z,14.92
2022-09-17T02:39:30.226Z,14.92
2022-09-17T02:40:46.343Z,14.90
2022-09-17T02:42:21.660Z,14.93
2022-09-17T02:43:55.484Z,14.91
2022-09-17T02:45:27.599Z,14.89
2022-09-17T02:46:56.983Z,14.86
2022-09-17T02:48:35.199Z,14.82
2022-09-17T02:49:50.242Z,14.79
2022-09-17T02:51:17.868Z,14.80
2022-09-17T02:52:52.138Z,14.76
2022-09-17T02:54:02.959Z,14.71
2022-09-17T02:55:17.996Z,14.70
2022-09-17T02:56:29.871Z,14.67
2022-09-17T02:57:55.045Z,14.68
2022-09-17T02:59:58.494Z,14.63
2022-09-17T03:01:13.379Z,14.63
2022-09-17T03:02:30.768Z,14.63
2022-09-17T03:03:46.138Z,14.59
2022-09-17T03:04:50.918Z,14.58
2022-09-17T03:05:55.072Z,14.54
2022-09-17T03:07:00.587Z,14.52
2022-09-17T03:08:03.975Z,14.52
2022-09-17T03:09:06.774Z,14.52
2022-09-17T03:10:09.744Z,14.51
2022-09-17T03:11:13.073Z,14.57
2022-09-17T03:12:16.506Z,14.60
2022-09-17T03:13:20.039Z,14.57
2022-09-17T03:14:22.881Z,14.52
2022-09-17T03:15:26.549Z,14.48
2022-09-17T03:16:29.478Z,14.53
2022-09-17T03:17:32.907Z,14.55
2022-09-17T03:18:36.474Z,14.54
2022-09-17T03:19:39.359Z,14.67
2022-09-17T03:20:42.416Z,14.63
2022-09-17T03:21:45.236Z,14.61
2022-09-17T03:22:48.135Z,14.64
2022-09-17T03:23:51.244Z,14.60
2022-09-17T03:24:54.256Z,14.59
2022-09-17T03:25:57.150Z,14.60
2022-09-17T03:27:00.106Z,14.60
2022-09-17T03:28:03.446Z,14.57
2022-09-17T03:29:06.643Z,14.54
2022-09-17T03:30:10.196Z,14.52
2022-09-17T03:31:13.097Z,14.56
2022-09-17T03:32:15.996Z,14.51
2022-09-17T03:33:20.027Z,14.48
2022-09-17T03:34:23.920Z,14.46
2022-09-17T03:35:27.010Z,14.43
2022-09-17T03:36:31.336Z,14.43
2022-09-17T03:37:34.207Z,14.44
2022-09-17T03:38:38.815Z,14.46
2022-09-17T03:39:41.816Z,14.41
2022-09-17T03:40:44.784Z,14.42
2022-09-17T03:41:47.757Z,14.43
2022-09-17T03:42:50.752Z,14.38
2022-09-17T03:43:54.305Z,14.41
2022-09-17T03:44:57.378Z,14.39
2022-09-17T03:46:00.772Z,14.38
2022-09-17T03:47:04.032Z,14.40
2022-09-17T03:48:06.894Z,14.41
2022-09-17T03:49:09.768Z,14.39
2022-09-17T03:50:12.779Z,14.37
2022-09-17T03:51:16.063Z,14.34
2022-09-17T03:52:19.183Z,14.36
2022-09-17T03:53:22.071Z,14.33
2022-09-17T03:54:25.867Z,14.33
2022-09-17T03:55:28.822Z,14.34
2022-09-17T03:56:31.815Z,14.33
2022-09-17T03:57:34.798Z,14.33
2022-09-17T03:58:38.922Z,14.32
2022-09-17T03:59:42.104Z,14.29
2022-09-17T04:00:45.208Z,14.28
2022-09-17T04:01:48.290Z,14.30
2022-09-17T04:02:51.455Z,14.32
2022-09-17T04:03:55.323Z,14.33
2022-09-17T04:04:58.232Z,14.34
2022-09-17T04:06:01.214Z,14.36
2022-09-17T04:07:04.460Z,14.37
2022-09-17T04:08:07.305Z,14.38
2022-09-17T04:09:10.186Z,14.36
2022-09-17T04:10:13.358Z,14.34
2022-09-17T04:11:16.937Z,14.30
2022-09-17T04:12:20.402Z,14.26
2022-09-17T04:13:23.300Z,14.23
2022-09-17T04:14:26.410Z,14.22
2022-09-17T04:15:29.324Z,14.20
2022-09-17T04:16:32.318Z,14.17
2022-09-17T04:17:35.418Z,14.15
2022-09-17T04:18:38.632Z,14.20
2022-09-17T04:19:41.695Z,14.15
2022-09-17T04:20:44.646Z,14.18
2022-09-17T04:21:47.511Z,14.15
2022-09-17T04:22:50.692Z,14.22
2022-09-17T04:23:53.718Z,14.37
2022-09-17T04:24:56.690Z,14.28
2022-09-17T04:25:59.611Z,14.25
2022-09-17T04:27:03.071Z,14.41
2022-09-17T04:28:06.789Z,14.38
2022-09-17T04:29:10.258Z,14.53
2022-09-17T04:30:14.961Z,14.63
2022-09-17T04:31:18.073Z,14.51
2022-09-17T04:32:21.017Z,14.63
2022-09-17T04:33:24.011Z,14.67
2022-09-17T04:34:27.075Z,14.67
2022-09-17T04:35:30.753Z,14.67
2022-09-17T04:36:33.664Z,14.67
2022-09-17T04:37:37.319Z,14.67
2022-09-17T04:38:40.581Z,14.67
2022-09-17T04:39:43.466Z,14.71
2022-09-17T04:40:50.140Z,14.63
2022-09-17T04:41:55.412Z,14.61
2022-09-17T04:43:00.009Z,14.61
2022-09-17T04:44:02.957Z,14.64
2022-09-17T04:45:06.549Z,14.70
2022-09-17T04:46:09.674Z,14.73
2022-09-17T04:47:12.550Z,14.72
2022-09-17T04:48:15.611Z,14.76
2022-09-17T04:49:18.439Z,14.78
2022-09-17T04:50:22.432Z,14.86
2022-09-17T04:51:25.372Z,14.94
2022-09-17T04:52:31.016Z,14.93
2022-09-17T04:53:34.346Z,15.01
2022-09-17T04:54:37.345Z,15.04
2022-09-17T04:55:40.348Z,15.06
2022-09-17T04:56:43.268Z,15.07
2022-09-17T04:57:52.036Z,15.08
2022-09-17T04:58:55.168Z,15.12
2022-09-17T04:59:58.381Z,15.18
2022-09-17T05:01:01.448Z,15.19
2022-09-17T05:02:04.753Z,15.24
2022-09-17T05:03:07.953Z,15.29
2022-09-17T05:04:11.208Z,15.34
2022-09-17T05:05:15.715Z,15.39
2022-09-17T05:06:18.581Z,15.39
2022-09-17T05:07:21.621Z,15.44
2022-09-17T05:08:25.337Z,15.48
2022-09-17T05:09:28.561Z,15.61
2022-09-17T05:10:31.525Z,15.64
2022-09-17T05:11:35.378Z,15.67
2022-09-17T05:12:38.355Z,15.67
2022-09-17T05:13:41.273Z,15.67
2022-09-17T05:14:44.221Z,15.73
2022-09-17T05:15:47.439Z,15.79
2022-09-17T05:16:50.369Z,15.83
2022-09-17T05:17:53.639Z,15.89
2022-09-17T05:18:57.981Z,16.06
2022-09-17T05:20:01.044Z,16.14
2022-09-17T05:21:04.251Z,16.25
2022-09-17T05:22:07.206Z,16.38
2022-09-17T05:23:10.537Z,16.51
2022-09-17T05:24:13.541Z,16.69
2022-09-17T05:25:19.742Z,16.80
2022-09-17T05:26:22.757Z,17.06
2022-09-17T05:27:25.683Z,17.25
2022-09-17T05:28:29.186Z,17.48
2022-09-17T05:29:32.918Z,17.64
2022-09-17T05:30:36.296Z,17.71
2022-09-17T05:31:39.239Z,17.92
2022-09-17T05:32:42.310Z,18.14
2022-09-17T05:33:45.127Z,18.24
2022-09-17T05:34:48.036Z,18.44
2022-09-17T05:35:50.978Z,18.62
2022-09-17T05:36:54.041Z,18.80
2022-09-17T05:38:02.104Z,18.95
2022-09-17T05:39:05.219Z,18.98
2022-09-17T05:40:10.362Z,19.21
2022-09-17T05:41:13.274Z,19.31
2022-09-17T05:42:16.367Z,19.33
2022-09-17T05:43:19.300Z,19.57
2022-09-17T05:44:23.689Z,19.91
2022-09-17T05:45:29.815Z,20.08
2022-09-17T05:46:32.706Z,20.30
2022-09-17T05:47:35.676Z,21.10
2022-09-17T05:48:38.579Z,21.82
2022-09-17T05:49:41.869Z,22.83
2022-09-17T05:50:44.990Z,23.13
2022-09-17T05:51:50.135Z,23.32
2022-09-17T05:52:54.005Z,23.47
2022-09-17T05:53:56.891Z,23.52
2022-09-17T05:54:59.762Z,23.57
2022-09-17T05:56:02.917Z,23.55
2022-09-17T05:57:06.289Z,23.90
2022-09-17T05:58:17.193Z,24.09
2022-09-17T05:59:20.255Z,24.19
2022-09-17T06:00:23.190Z,24.23
2022-09-17T06:01:26.435Z,24.27
2022-09-17T06:02:29.730Z,24.21
2022-09-17T06:03:32.724Z,24.35
2022-09-17T06:04:35.714Z,24.34
2022-09-17T06:05:38.821Z,24.41
2022-09-17T06:06:41.825Z,24.27
2022-09-17T06:07:44.772Z,24.58
2022-09-17T06:08:47.747Z,24.98
2022-09-17T06:09:50.856Z,25.29
2022-09-17T06:10:55.443Z,25.39
2022-09-17T06:12:01.254Z,26.04
2022-09-17T06:13:04.525Z,26.39
2022-09-17T06:14:07.340Z,27.01
2022-09-17T06:15:14.664Z,27.66
2022-09-17T06:16:17.706Z,28.19
2022-09-17T06:17:22.261Z,28.30
2022-09-17T06:18:25.737Z,28.58
2022-09-17T06:19:28.894Z,29.03
2022-09-17T06:20:31.896Z,29.35
2022-09-17T06:21:34.876Z,29.26
2022-09-17T06:22:37.757Z,29.34
2022-09-17T06:23:43.457Z,29.00
2022-09-17T06:24:46.446Z,29.08
2022-09-17T06:25:59.841Z,29.48
2022-09-17T06:27:02.653Z,29.87
2022-09-17T06:28:05.900Z,30.69
2022-09-17T06:29:09.215Z,30.95
2022-09-17T06:30:12.593Z,31.17
2022-09-17T06:31:15.485Z,31.56
2022-09-17T06:32:18.359Z,32.17
2022-09-17T06:33:22.895Z,32.83
2022-09-17T06:34:25.761Z,33.11
2022-09-17T06:35:29.529Z,33.20
2022-09-17T06:36:32.610Z,33.68
2022-09-17T06:37:40.264Z,34.36
2022-09-17T06:38:43.791Z,34.49
2022-09-17T06:39:46.746Z,34.28
2022-09-17T06:40:52.929Z,34.68
2022-09-17T06:41:55.804Z,35.20
2022-09-17T06:42:59.787Z,35.67
2022-09-17T06:44:04.288Z,35.09
2022-09-17T06:45:10.266Z,35.44
2022-09-17T06:46:16.240Z,35.71
2022-09-17T06:47:19.491Z,35.70
2022-09-17T06:48:23.321Z,36.32
2022-09-17T06:49:26.441Z,36.52
2022-09-17T06:50:29.346Z,36.37
2022-09-17T06:51:32.422Z,36.30
2022-09-17T06:52:35.445Z,36.07
2022-09-17T06:53:39.533Z,35.32
2022-09-17T06:54:43.082Z,35.05
2022-09-17T06:55:46.168Z,34.87
2022-09-17T06:56:49.114Z,34.30
2022-09-17T06:57:52.210Z,33.97
2022-09-17T06:58:55.244Z,33.32
2022-09-17T06:59:58.308Z,32.70
2022-09-17T07:01:02.801Z,31.76
2022-09-17T07:02:06.213Z,30.96
2022-09-17T07:03:10.581Z,30.09
2022-09-17T07:04:14.036Z,29.31
2022-09-17T07:05:17.135Z,28.82
2022-09-17T07:06:20.087Z,28.56
2022-09-17T07:07:22.982Z,27.72
2022-09-17T07:08:26.281Z,27.48
2022-09-17T07:09:29.308Z,27.07
2022-09-17T07:10:32.715Z,26.61
2022-09-17T07:11:35.680Z,26.49
2022-09-17T07:12:44.449Z,26.34
2022-09-17T07:13:49.619Z,26.20
2022-09-17T07:14:52.849Z,25.97
2022-09-17T07:16:02.022Z,25.90
2022-09-17T07:17:05.192Z,25.50
2022-09-17T07:18:12.135Z,25.32
2022-09-17T07:19:15.185Z,25.26
2022-09-17T07:20:18.459Z,25.05
2022-09-17T07:21:21.460Z,25.10
2022-09-17T07:22:25.652Z,25.04
2022-09-17T07:23:34.543Z,24.80
2022-09-17T07:24:37.645Z,24.73
2022-09-17T07:25:40.642Z,24.71
2022-09-17T07:26:43.719Z,24.56
2022-09-17T07:27:46.688Z,24.61
2022-09-17T07:28:52.626Z,24.47
2022-09-17T07:29:55.953Z,24.40
2022-09-17T07:30:59.055Z,24.56
2022-09-17T07:32:02.347Z,24.43
2022-09-17T07:33:05.234Z,24.38
2022-09-17T07:34:08.057Z,24.18
2022-09-17T07:35:10.877Z,24.18
2022-09-17T07:36:17.910Z,24.01
2022-09-17T07:37:21.690Z,23.90
2022-09-17T07:38:25.946Z,23.70
2022-09-17T07:39:29.021Z,23.82
2022-09-17T07:40:31.940Z,23.74
2022-09-17T07:41:35.252Z,23.80
2022-09-17T07:42:38.014Z,23.94
2022-09-17T07:43:42.155Z,23.62
2022-09-17T07:44:46.703Z,23.77
2022-09-17T07:45:49.646Z,23.89
2022-09-17T07:46:52.517Z,23.78
2022-09-17T07:47:55.517Z,24.00
2022-09-17T07:48:58.643Z,23.98
2022-09-17T07:50:01.539Z,23.92
2022-09-17T07:51:04.630Z,23.60
2022-09-17T07:52:07.497Z,23.77
2022-09-17T07:53:11.644Z,23.51
2022-09-17T07:54:14.633Z,23.62
2022-09-17T07:55:17.729Z,23.59
2022-09-17T07:56:21.369Z,23.53
2022-09-17T07:57:24.358Z,23.50
2022-09-17T07:58:36.735Z,23.50
2022-09-17T07:59:39.829Z,23.58
2022-09-17T08:00:43.473Z,23.67
2022-09-17T08:01:46.537Z,23.67
2022-09-17T08:02:56.593Z,23.84
2022-09-17T08:04:00.455Z,23.81
2022-09-17T08:05:03.702Z,23.85
2022-09-17T08:06:13.648Z,24.02
2022-09-17T08:07:16.621Z,24.16
2022-09-17T08:08:21.375Z,24.16
2022-09-17T08:09:24.613Z,24.21
2022-09-17T08:10:27.897Z,24.21
2022-09-17T08:11:54.604Z,24.15
2022-09-17T08:12:59.255Z,24.18
2022-09-17T08:14:02.292Z,24.27
2022-09-17T08:15:05.888Z,24.11
2022-09-17T08:16:15.306Z,24.12
2022-09-17T08:17:18.278Z,24.08
2022-09-17T08:18:21.147Z,23.96
2022-09-17T08:19:24.621Z,23.88
2022-09-17T08:20:27.494Z,23.89
2022-09-17T08:21:30.620Z,23.97
2022-09-17T08:22:33.979Z,23.85
2022-09-17T08:23:40.085Z,23.87
2022-09-17T08:24:42.929Z,23.94
2022-09-17T08:25:53.739Z,23.93
2022-09-17T08:26:56.783Z,24.02
2022-09-17T08:27:59.778Z,24.16
2022-09-17T08:29:02.718Z,24.32
2022-09-17T08:30:07.889Z,24.70
2022-09-17T08:31:16.686Z,24.75
2022-09-17T08:32:19.553Z,25.17
2022-09-17T08:33:22.751Z,25.44
2022-09-17T08:34:25.662Z,25.82
2022-09-17T08:35:28.494Z,25.92
2022-09-17T08:36:31.660Z,26.01
2022-09-17T08:37:35.242Z,26.34
2022-09-17T08:38:39.217Z,26.68
2022-09-17T08:39:42.572Z,27.29
2022-09-17T08:41:10.429Z,27.80
2022-09-17T08:42:51.683Z,28.01
2022-09-17T08:44:32.636Z,28.52
2022-09-17T08:45:36.043Z,28.49
2022-09-17T08:47:01.383Z,28.51
2022-09-17T08:48:05.417Z,28.51
2022-09-17T08:49:20.725Z,28.37
2022-09-17T08:50:32.730Z,27.93
2022-09-17T08:51:41.792Z,27.65
2022-09-17T08:53:23.508Z,27.69
2022-09-17T08:55:11.739Z,27.50
2022-09-17T08:56:18.909Z,27.29
2022-09-17T08:57:47.095Z,26.99
2022-09-17T08:59:11.069Z,26.46
2022-09-17T09:00:20.615Z,26.41
2022-09-17T09:01:32.122Z,26.11
2022-09-17T09:03:05.303Z,25.88
2022-09-17T09:04:35.372Z,25.61
2022-09-17T09:05:46.045Z,25.39
2022-09-17T09:07:24.321Z,24.92
2022-09-17T09:08:37.139Z,24.78
2022-09-17T09:10:14.483Z,24.47
2022-09-17T09:11:27.462Z,24.34
2022-09-17T09:12:36.330Z,24.47
2022-09-17T09:13:52.612Z,24.53
2022-09-17T09:15:19.184Z,24.75
2022-09-17T09:16:27.210Z,25.01
2022-09-17T09:17:41.862Z,25.01
2022-09-17T09:18:45.004Z,25.23
2022-09-17T09:19:50.050Z,25.37
2022-09-17T09:21:28.070Z,25.75
2022-09-17T09:22:52.217Z,26.72
2022-09-17T09:24:01.344Z,26.79
2022-09-17T09:25:24.913Z,27.41
2022-09-17T09:26:49.273Z,27.96
2022-09-17T09:28:08.903Z,28.22
2022-09-17T09:29:38.864Z,28.32
2022-09-17T09:31:22.358Z,28.45
2022-09-17T09:32:49.975Z,28.62
2022-09-17T09:33:53.607Z,28.79
2022-09-17T09:34:58.112Z,29.06
2022-09-17T09:36:01.374Z,29.25
2022-09-17T09:37:31.777Z,29.37
2022-09-17T09:39:11.389Z,29.41
2022-09-17T09:40:44.785Z,29.18
2022-09-17T09:41:59.490Z,29.01
2022-09-17T09:44:02.754Z,28.81
2022-09-17T09:45:27.505Z,28.32
2022-09-17T09:47:16.948Z,28.03
2022-09-17T09:49:09.707Z,27.56
2022-09-17T09:51:01.751Z,27.27
2022-09-17T09:52:39.332Z,27.25
2022-09-17T09:54:07.376Z,27.40
2022-09-17T09:55:35.663Z,27.33
2022-09-17T09:57:09.020Z,27.36
2022-09-17T09:58:17.124Z,27.62
2022-09-17T09:59:20.914Z,27.61
2022-09-17T10:00:34.755Z,27.93
2022-09-17T10:01:42.838Z,27.99
2022-09-17T10:02:47.218Z,27.95
2022-09-17T10:03:52.692Z,27.88
2022-09-17T10:05:07.973Z,27.87
2022-09-17T10:06:12.354Z,27.81
2022-09-17T10:07:15.351Z,27.74
2022-09-17T10:08:18.308Z,27.32
2022-09-17T10:09:22.729Z,27.18
2022-09-17T10:10:25.914Z,26.99
2022-09-17T10:11:34.847Z,26.87
2022-09-17T10:12:38.514Z,26.72
2022-09-17T10:13:43.137Z,26.60
2022-09-17T10:14:47.272Z,26.56
2022-09-17T10:15:50.443Z,26.40
2022-09-17T10:17:25.185Z,26.38
2022-09-17T10:18:28.224Z,26.27
2022-09-17T10:19:31.167Z,26.31
2022-09-17T10:20:33.992Z,26.15
2022-09-17T10:21:40.374Z,26.27
2022-09-17T10:22:47.887Z,26.30
2022-09-17T10:23:51.421Z,26.22
2022-09-17T10:24:57.195Z,26.29
2022-09-17T10:26:00.279Z,26.45
2022-09-17T10:27:14.183Z,28.27
2022-09-17T10:28:50.849Z,31.73
2022-09-17T10:30:17.387Z,35.15
2022-09-17T10:31:20.516Z,36.05
2022-09-17T10:32:23.684Z,37.62
2022-09-17T10:33:31.708Z,39.19
2022-09-17T10:34:35.105Z,38.51
2022-09-17T10:35:38.419Z,41.49
2022-09-17T10:36:46.581Z,43.52
2022-09-17T10:37:52.433Z,45.62
2022-09-17T10:38:55.380Z,47.30
2022-09-17T10:39:58.495Z,48.66
2022-09-17T10:41:22.469Z,50.37
2022-09-17T10:42:25.419Z,48.63
2022-09-17T10:43:28.316Z,50.82
2022-09-17T10:44:37.019Z,52.81
2022-09-17T10:45:43.822Z,50.14
2022-09-17T10:46:46.877Z,48.25
2022-09-17T10:47:51.431Z,47.07
2022-09-17T10:49:33.083Z,44.50
2022-09-17T10:50:37.583Z,42.76
2022-09-17T10:51:40.672Z,41.17
2022-09-17T10:53:06.280Z,39.36
2022-09-17T10:55:08.003Z,37.36
2022-09-17T10:56:37.733Z,35.19
2022-09-17T10:57:58.908Z,34.36
2022-09-17T10:59:35.343Z,33.06
2022-09-17T11:00:41.030Z,32.61
2022-09-17T11:02:08.016Z,31.88
2022-09-17T11:03:44.534Z,31.22
2022-09-17T11:05:33.365Z,30.75
2022-09-17T11:07:16.842Z,30.13
2022-09-17T11:08:38.698Z,29.58
2022-09-17T11:10:04.732Z,29.12
2022-09-17T11:11:27.941Z,28.64
2022-09-17T11:13:02.141Z,28.11
2022-09-17T11:14:50.265Z,27.68
2022-09-17T11:16:29.647Z,27.15
2022-09-17T11:17:56.080Z,27.07
2022-09-17T11:19:07.340Z,27.05
2022-09-17T11:20:30.938Z,26.89
2022-09-17T11:21:49.233Z,26.72
2022-09-17T11:23:49.620Z,26.70
2022-09-17T11:25:27.973Z,26.81
2022-09-17T11:27:06.353Z,26.85
2022-09-17T11:28:34.298Z,27.04
2022-09-17T11:30:19.307Z,27.15
2022-09-17T11:32:11.164Z,27.31
2022-09-17T11:33:42.264Z,27.69
2022-09-17T11:34:55.678Z,27.95
2022-09-17T11:36:18.487Z,27.96
2022-09-17T11:37:28.994Z,28.07
2022-09-17T11:38:40.748Z,28.10
2022-09-17T11:40:06.227Z,28.25
2022-09-17T11:41:31.620Z,28.39
2022-09-17T11:42:42.168Z,28.67
2022-09-17T11:43:53.781Z,28.77
2022-09-17T11:45:05.338Z,29.11
2022-09-17T11:46:19.371Z,29.51
2022-09-17T11:47:36.812Z,29.81
2022-09-17T11:49:02.440Z,30.18
2022-09-17T11:50:28.722Z,30.19
2022-09-17T11:51:43.908Z,30.54
2022-09-17T11:53:00.907Z,30.89
2022-09-17T11:54:07.958Z,31.01
2022-09-17T11:55:45.606Z,30.82
2022-09-17T11:56:54.539Z,30.82
2022-09-17T11:58:10.121Z,31.03
2022-09-17T11:59:42.583Z,30.99
2022-09-17T12:00:58.256Z,30.90
2022-09-17T12:02:09.100Z,30.86
2022-09-17T12:03:26.289Z,30.89
2022-09-17T12:04:47.819Z,30.67
2022-09-17T12:05:56.450Z,30.43
2022-09-17T12:07:23.920Z,30.20
2022-09-17T12:09:03.654Z,30.18
2022-09-17T12:10:29.884Z,29.88
2022-09-17T12:12:07.690Z,29.76
2022-09-17T12:13:40.036Z,29.65
2022-09-17T12:15:14.649Z,29.88
2022-09-17T12:16:29.022Z,29.59
2022-09-17T12:18:45.161Z,30.02
2022-09-17T12:20:06.516Z,30.06
2022-09-17T12:21:14.926Z,30.21
2022-09-17T12:22:40.560Z,30.27
2022-09-17T12:24:01.901Z,30.29
2022-09-17T12:25:06.678Z,30.06
2022-09-17T12:26:52.576Z,29.79
2022-09-17T12:28:05.935Z,29.91
2022-09-17T12:29:28.465Z,29.81
2022-09-17T12:30:50.426Z,29.60
2022-09-17T12:32:23.574Z,29.60
2022-09-17T12:33:46.120Z,29.51
2022-09-17T12:35:04.047Z,29.32
2022-09-17T12:36:19.913Z,29.35
2022-09-17T12:37:43.375Z,29.24
2022-09-17T12:39:37.450Z,28.98
2022-09-17T12:41:19.965Z,28.83
2022-09-17T12:43:11.277Z,28.71
2022-09-17T12:44:32.666Z,28.47
2022-09-17T12:46:00.588Z,28.19
2022-09-17T12:47:40.465Z,27.90
2022-09-17T12:49:19.517Z,27.52
2022-09-17T12:50:34.529Z,27.25
2022-09-17T12:52:21.295Z,27.06
2022-09-17T12:53:37.155Z,26.90
2022-09-17T12:55:14.027Z,26.76
2022-09-17T12:57:16.817Z,26.60
2022-09-17T12:58:42.283Z,26.49
2022-09-17T13:00:07.916Z,26.40
2022-09-17T13:01:36.472Z,26.30
2022-09-17T13:02:46.775Z,26.23
2022-09-17T13:04:16.703Z,26.29
2022-09-17T13:05:55.188Z,26.18
2022-09-17T13:07:49.002Z,26.01
2022-09-17T13:09:41.617Z,26.00
2022-09-17T13:11:30.925Z,25.87
2022-09-17T13:12:43.037Z,25.94
2022-09-17T13:14:23.605Z,26.12
2022-09-17T13:16:05.007Z,26.25
2022-09-17T13:18:20.672Z,26.26
2022-09-17T13:19:56.075Z,26.22
2022-09-17T13:21:03.969Z,26.41
2022-09-17T13:22:22.973Z,26.66
2022-09-17T13:23:40.410Z,26.77
2022-09-17T13:24:47.147Z,26.89
2022-09-17T13:25:53.427Z,26.95
2022-09-17T13:26:58.779Z,27.12
2022-09-17T13:28:19.912Z,26.84
2022-09-17T13:29:43.922Z,27.02
2022-09-17T13:30:58.767Z,26.92
2022-09-17T13:32:02.041Z,27.01
2022-09-17T13:33:05.213Z,27.09
2022-09-17T13:34:28.517Z,27.21
2022-09-17T13:35:34.157Z,27.15
2022-09-17T13:36:46.201Z,27.27
2022-09-17T13:37:58.482Z,27.32
2022-09-17T13:39:04.890Z,27.37
2022-09-17T13:40:33.099Z,27.40
2022-09-17T13:41:42.478Z,27.38
2022-09-17T13:42:49.317Z,27.39
2022-09-17T13:43:55.203Z,27.26
2022-09-17T13:45:18.807Z,27.06
2022-09-17T13:46:24.677Z,27.05
2022-09-17T13:47:37.023Z,27.18
2022-09-17T13:48:49.392Z,27.30
2022-09-17T13:50:04.806Z,27.37
2022-09-17T13:51:32.681Z,27.35
2022-09-17T13:52:49.376Z,27.15
2022-09-17T13:53:55.002Z,27.19
2022-09-17T13:54:58.585Z,27.10
2022-09-17T13:56:37.055Z,27.16
2022-09-17T13:57:51.532Z,27.09
2022-09-17T13:58:54.688Z,26.88
2022-09-17T14:00:00.925Z,26.57
2022-09-17T14:01:46.552Z,26.71
2022-09-17T14:02:49.501Z,26.61
2022-09-17T14:03:54.369Z,26.61
2022-09-17T14:05:29.981Z,26.59
2022-09-17T14:06:36.100Z,26.51
2022-09-17T14:07:49.054Z,26.47
2022-09-17T14:08:58.532Z,26.47
2022-09-17T14:10:16.592Z,26.52
2022-09-17T14:11:28.671Z,26.45
2022-09-17T14:12:51.032Z,26.37
2022-09-17T14:14:04.193Z,26.25
2022-09-17T14:15:37.326Z,26.29
2022-09-17T14:16:42.891Z,26.17
2022-09-17T14:17:52.059Z,26.09
2022-09-17T14:19:26.941Z,25.98
2022-09-17T14:20:34.203Z,25.90
2022-09-17T14:21:38.031Z,25.96
2022-09-17T14:22:40.969Z,25.95
2022-09-17T14:23:55.508Z,25.96
2022-09-17T14:24:59.095Z,25.89
2022-09-17T14:26:08.257Z,25.97
2022-09-17T14:27:42.553Z,26.02
2022-09-17T14:29:19.621Z,25.98
2022-09-17T14:30:30.612Z,25.83
2022-09-17T14:31:36.949Z,25.75
2022-09-17T14:32:51.321Z,25.73
2022-09-17T14:33:55.532Z,25.51
2022-09-17T14:35:02.643Z,25.51
2022-09-17T14:36:18.259Z,25.35
2022-09-17T14:37:24.021Z,25.25
2022-09-17T14:38:45.813Z,25.25
2022-09-17T14:39:50.541Z,25.05
2022-09-17T14:41:12.555Z,24.88
2022-09-17T14:42:28.473Z,24.85
2022-09-17T14:43:56.264Z,24.90
2022-09-17T14:45:24.499Z,24.78
2022-09-17T14:46:40.245Z,24.74
2022-09-17T14:47:43.176Z,24.76
2022-09-17T14:48:46.140Z,24.73
2022-09-17T14:49:50.753Z,24.70
2022-09-17T14:51:17.419Z,24.74
2022-09-17T14:52:32.829Z,24.73
2022-09-17T14:53:35.741Z,24.83
2022-09-17T14:54:38.777Z,24.85
2022-09-17T14:55:44.007Z,24.73
2022-09-17T14:56:59.982Z,24.72
2022-09-17T14:58:04.838Z,24.76
2022-09-17T14:59:38.240Z,24.81
2022-09-17T15:00:53.059Z,24.82
2022-09-17T15:01:56.628Z,24.77
2022-09-17T15:03:00.236Z,24.75
2022-09-17T15:04:22.994Z,24.66
2022-09-17T15:05:33.068Z,24.66
2022-09-17T15:06:36.115Z,24.81
2022-09-17T15:07:41.884Z,24.77
2022-09-17T15:08:47.973Z,24.81
2022-09-17T15:09:55.183Z,24.83
2022-09-17T15:11:02.666Z,24.86
2022-09-17T15:12:07.755Z,24.87
2022-09-17T15:13:15.202Z,24.79
2022-09-17T15:14:28.591Z,24.85
2022-09-17T15:15:31.777Z,24.87
2022-09-17T15:16:36.753Z,24.86
2022-09-17T15:17:43.378Z,24.84
2022-09-17T15:18:57.544Z,24.82
2022-09-17T15:20:08.310Z,24.78
2022-09-17T15:21:22.116Z,24.74
2022-09-17T15:22:37.971Z,24.76
2022-09-17T15:23:42.700Z,24.74
2022-09-17T15:25:04.324Z,24.72
2022-09-17T15:26:07.423Z,24.74
2022-09-17T15:27:40.780Z,24.71
2022-09-17T15:28:46.111Z,24.67
2022-09-17T15:29:57.161Z,24.72